createdAt,value
2022-09-11T00:00:00.557Z,15.60
2022-09-11T00:02:30.735Z,15.59
2022-09-11T00:05:00.994Z,15.58
2022-09-11T00:07:31.165Z,15.57
2022-09-11T00:10:01.404Z,15.56
2022-09-11T00:12:31.513Z,15.57
2022-09-11T00:15:02.001Z,15.58
2022-09-11T00:17:32.105Z,15.58
2022-09-11T00:20:02.823Z,15.58
2022-09-11T00:22:32.941Z,15.57
2022-09-11T00:25:03.147Z,15.51
2022-09-11T00:27:33.419Z,15.47
2022-09-11T00:30:03.734Z,15.44
2022-09-11T00:32:34.221Z,15.41
2022-09-11T00:35:04.616Z,15.38
2022-09-11T00:37:35.158Z,15.36
2022-09-11T00:40:06.815Z,15.34
2022-09-11T00:42:37.343Z,15.33
2022-09-11T00:45:17.862Z,15.32
2022-09-11T00:47:48.520Z,15.30
2022-09-11T00:50:25.232Z,15.30
2022-09-11T00:52:59.034Z,15.30
2022-09-11T00:55:35.571Z,15.27
2022-09-11T00:58:08.686Z,15.24
2022-09-11T01:00:40.469Z,15.21
2022-09-11T01:03:10.690Z,15.19
2022-09-11T01:05:43.489Z,15.07
2022-09-11T01:08:14.135Z,15.01
2022-09-11T01:10:59.274Z,14.99
2022-09-11T01:13:38.883Z,14.97
2022-09-11T01:16:20.636Z,14.94
2022-09-11T01:19:01.074Z,14.92
2022-09-11T01:21:52.604Z,14.89
2022-09-11T01:24:42.437Z,14.86
2022-09-11T01:27:37.234Z,14.84
2022-09-11T01:30:11.873Z,14.82
2022-09-11T01:33:01.876Z,14.79
2022-09-11T01:35:42.985Z,14.77
2022-09-11T01:38:18.783Z,14.75
2022-09-11T01:40:55.551Z,14.75
2022-09-11T01:43:30.551Z,14.75
2022-09-11T01:46:03.711Z,14.75
2022-09-11T01:48:38.980Z,14.75
2022-09-11T01:51:15.441Z,14.73
2022-09-11T01:53:51.099Z,14.71
2022-09-11T01:56:27.091Z,14.70
2022-09-11T01:59:01.843Z,14.69
2022-09-11T02:01:35.129Z,14.67
2022-09-11T02:04:10.611Z,14.64
2022-09-11T02:06:47.335Z,14.63
2022-09-11T02:09:22.199Z,14.61
2022-09-11T02:11:56.037Z,14.58
2022-09-11T02:14:32.233Z,14.58
2022-09-11T02:17:09.099Z,14.59
2022-09-11T02:19:39.785Z,14.61
2022-09-11T02:22:10.392Z,14.62
2022-09-11T02:24:40.790Z,14.63
2022-09-11T02:27:13.694Z,14.65
2022-09-11T02:29:44.277Z,14.67
2022-09-11T02:32:14.728Z,14.69
2022-09-11T02:34:47.038Z,14.73
2022-09-11T02:37:26.665Z,14.75
2022-09-11T02:40:33.055Z,14.76
2022-09-11T02:43:34.064Z,14.76
2022-09-11T02:46:39.789Z,14.75
2022-09-11T02:49:21.659Z,14.74
2022-09-11T02:52:03.382Z,14.73
2022-09-11T02:54:43.327Z,14.71
2022-09-11T02:57:19.827Z,14.70
2022-09-11T02:59:54.769Z,14.70
2022-09-11T03:02:27.633Z,14.70
2022-09-11T03:04:57.985Z,14.70
2022-09-11T03:07:28.694Z,14.68
2022-09-11T03:09:58.889Z,14.64
2022-09-11T03:12:29.181Z,14.58
2022-09-11T03:14:59.313Z,14.52
2022-09-11T03:17:29.746Z,14.49
2022-09-11T03:19:59.871Z,14.46
2022-09-11T03:22:30.053Z,14.46
2022-09-11T03:25:00.388Z,14.46
2022-09-11T03:27:30.493Z,14.46
2022-09-11T03:30:00.621Z,14.45
2022-09-11T03:32:32.298Z,14.42
2022-09-11T03:35:02.742Z,14.40
2022-09-11T03:37:32.922Z,14.40
2022-09-11T03:40:03.498Z,14.39
2022-09-11T03:42:33.839Z,14.36
2022-09-11T03:45:04.071Z,14.32
2022-09-11T03:47:34.524Z,14.32
2022-09-11T03:50:04.946Z,14.30
2022-09-11T03:52:36.177Z,14.29
2022-09-11T03:55:07.637Z,14.28
2022-09-11T03:57:39.059Z,14.25
2022-09-11T04:00:11.567Z,14.22
2022-09-11T04:02:42.133Z,14.17
2022-09-11T04:05:12.834Z,14.11
2022-09-11T04:07:42.941Z,14.09
2022-09-11T04:10:13.623Z,14.07
2022-09-11T04:12:44.162Z,14.05
2022-09-11T04:15:15.256Z,14.03
2022-09-11T04:17:46.140Z,14.01
2022-09-11T04:20:16.388Z,14.01
2022-09-11T04:22:46.614Z,14.00
2022-09-11T04:25:16.787Z,14.02
2022-09-11T04:27:47.258Z,14.05
2022-09-11T04:30:17.690Z,14.04
2022-09-11T04:32:47.793Z,14.07
2022-09-11T04:35:19.072Z,14.07
2022-09-11T04:37:49.212Z,14.09
2022-09-11T04:40:19.615Z,14.08
2022-09-11T04:42:49.746Z,14.09
2022-09-11T04:45:19.994Z,14.11
2022-09-11T04:47:53.069Z,14.12
2022-09-11T04:50:23.233Z,14.15
2022-09-11T04:52:54.777Z,14.18
2022-09-11T04:55:24.952Z,14.20
2022-09-11T04:57:55.069Z,14.23
2022-09-11T05:00:25.213Z,14.26
2022-09-11T05:02:55.965Z,14.29
2022-09-11T05:05:26.095Z,14.32
2022-09-11T05:07:56.277Z,14.35
2022-09-11T05:10:27.205Z,14.37
2022-09-11T05:12:57.342Z,14.38
2022-09-11T05:15:27.880Z,14.38
2022-09-11T05:17:58.012Z,14.38
2022-09-11T05:20:28.158Z,14.38
2022-09-11T05:22:58.522Z,14.37
2022-09-11T05:25:29.982Z,14.35
2022-09-11T05:28:00.146Z,14.33
2022-09-11T05:30:31.563Z,14.31
2022-09-11T05:33:02.013Z,14.30
2022-09-11T05:35:32.546Z,14.30
2022-09-11T05:38:02.790Z,14.32
2022-09-11T05:40:33.926Z,14.34
2022-09-11T05:43:04.082Z,14.35
2022-09-11T05:45:34.235Z,14.36
2022-09-11T05:48:05.119Z,14.36
2022-09-11T05:50:35.254Z,14.36
2022-09-11T05:53:06.196Z,14.37
2022-09-11T05:55:37.227Z,14.38
2022-09-11T05:58:07.908Z,14.40
2022-09-11T06:00:38.128Z,14.41
2022-09-11T06:03:11.472Z,14.43
2022-09-11T06:05:44.200Z,14.44
2022-09-11T06:08:14.741Z,14.46
2022-09-11T06:10:48.121Z,14.49
2022-09-11T06:13:18.703Z,14.50
2022-09-11T06:15:49.775Z,14.52
2022-09-11T06:18:20.109Z,14.52
2022-09-11T06:20:59.872Z,14.54
2022-09-11T06:23:30.173Z,14.56
2022-09-11T06:26:09.017Z,14.57
2022-09-11T06:28:40.233Z,14.60
2022-09-11T06:31:13.539Z,14.61
2022-09-11T06:33:44.236Z,14.64
2022-09-11T06:36:17.471Z,14.65
2022-09-11T06:38:48.002Z,14.67
2022-09-11T06:41:19.144Z,14.67
2022-09-11T06:43:50.326Z,14.69
2022-09-11T06:46:22.348Z,14.70
2022-09-11T06:48:53.839Z,14.71
2022-09-11T06:51:24.760Z,14.73
2022-09-11T06:53:58.231Z,14.73
2022-09-11T06:56:28.954Z,14.74
2022-09-11T06:58:59.489Z,14.76
2022-09-11T07:01:30.082Z,14.78
2022-09-11T07:04:02.756Z,14.79
2022-09-11T07:06:33.074Z,14.82
2022-09-11T07:09:03.715Z,14.83
2022-09-11T07:11:36.464Z,14.84
2022-09-11T07:14:07.342Z,14.83
2022-09-11T07:16:37.713Z,14.86
2022-09-11T07:19:10.530Z,14.88
2022-09-11T07:21:41.795Z,14.90
2022-09-11T07:24:12.471Z,14.92
2022-09-11T07:26:42.585Z,14.93
2022-09-11T07:29:13.713Z,14.94
2022-09-11T07:31:44.273Z,14.96
2022-09-11T07:34:14.388Z,14.98
2022-09-11T07:36:44.633Z,15.01
2022-09-11T07:39:15.137Z,15.04
2022-09-11T07:41:45.334Z,15.07
2022-09-11T07:44:16.341Z,15.08
2022-09-11T07:46:46.475Z,15.09
2022-09-11T07:49:17.563Z,15.13
2022-09-11T07:51:48.009Z,15.17
2022-09-11T07:54:18.726Z,15.18
2022-09-11T07:56:48.900Z,15.22
2022-09-11T07:59:19.710Z,15.26
2022-09-11T08:01:50.325Z,15.29
2022-09-11T08:04:21.017Z,15.34
2022-09-11T08:06:51.347Z,15.39
2022-09-11T08:09:21.814Z,15.44
2022-09-11T08:11:55.674Z,15.48
2022-09-11T08:14:26.765Z,15.53
2022-09-11T08:16:57.105Z,15.57
2022-09-11T08:19:27.538Z,15.61
2022-09-11T08:21:57.893Z,15.64
2022-09-11T08:24:28.374Z,15.68
2022-09-11T08:26:58.483Z,15.72
2022-09-11T08:29:28.598Z,15.76
2022-09-11T08:32:02.246Z,15.80
2022-09-11T08:34:33.044Z,15.83
2022-09-11T08:37:03.263Z,15.88
2022-09-11T08:39:33.559Z,15.92
2022-09-11T08:42:09.713Z,15.94
2022-09-11T08:44:48.727Z,15.93
2022-09-11T08:47:24.465Z,15.91
2022-09-11T08:49:59.139Z,15.90
2022-09-11T08:52:30.081Z,15.90
2022-09-11T08:55:02.372Z,15.93
2022-09-11T08:57:42.515Z,15.97
2022-09-11T09:00:23.597Z,16.02
2022-09-11T09:03:19.417Z,16.05
2022-09-11T09:05:56.267Z,16.08
2022-09-11T09:08:46.406Z,16.18
2022-09-11T09:11:29.061Z,16.27
2022-09-11T09:14:15.811Z,16.37
2022-09-11T09:16:53.441Z,16.49
2022-09-11T09:19:26.379Z,16.59
2022-09-11T09:22:09.149Z,16.67
2022-09-11T09:24:48.473Z,16.76
2022-09-11T09:27:22.448Z,16.83
2022-09-11T09:29:55.699Z,16.88
2022-09-11T09:32:33.399Z,16.93
2022-09-11T09:35:12.470Z,16.98
2022-09-11T09:37:42.634Z,17.03
2022-09-11T09:40:17.572Z,17.09
2022-09-11T09:43:13.989Z,17.17
2022-09-11T09:46:04.475Z,17.28
2022-09-11T09:48:40.668Z,17.39
2022-09-11T09:51:15.082Z,17.52
2022-09-11T09:53:49.959Z,17.64
2022-09-11T09:56:23.726Z,17.71
2022-09-11T09:59:00.991Z,17.85
2022-09-11T10:01:50.077Z,17.99
2022-09-11T10:04:23.852Z,18.11
2022-09-11T10:06:55.983Z,18.21
2022-09-11T10:09:29.465Z,18.31
2022-09-11T10:12:03.432Z,18.40
2022-09-11T10:14:54.675Z,18.47
2022-09-11T10:17:32.473Z,18.55
2022-09-11T10:20:25.818Z,18.63
2022-09-11T10:22:57.455Z,18.73
2022-09-11T10:25:30.110Z,18.80
2022-09-11T10:28:08.990Z,18.84
2022-09-11T10:30:42.542Z,18.91
2022-09-11T10:33:22.992Z,18.98
2022-09-11T10:35:56.161Z,19.01
2022-09-11T10:38:32.663Z,19.04
2022-09-11T10:41:10.962Z,19.06
2022-09-11T10:43:51.028Z,19.06
2022-09-11T10:46:41.324Z,19.08
2022-09-11T10:49:20.473Z,19.12
2022-09-11T10:52:17.451Z,19.17
2022-09-11T10:54:55.701Z,19.21
2022-09-11T10:57:31.625Z,19.25
2022-09-11T11:00:09.006Z,19.31
2022-09-11T11:02:43.873Z,19.39
2022-09-11T11:05:26.143Z,19.44
2022-09-11T11:08:13.459Z,19.46
2022-09-11T11:10:51.933Z,19.45
2022-09-11T11:13:40.178Z,19.42
2022-09-11T11:16:18.279Z,19.41
2022-09-11T11:19:14.689Z,19.42
2022-09-11T11:21:58.254Z,19.50
2022-09-11T11:24:54.591Z,19.54
2022-09-11T11:27:40.721Z,19.62
2022-09-11T11:30:17.735Z,19.71
2022-09-11T11:33:20.794Z,19.73
2022-09-11T11:36:02.451Z,19.73
2022-09-11T11:38:40.385Z,19.68
2022-09-11T11:41:17.049Z,19.62
2022-09-11T11:43:50.296Z,19.60
2022-09-11T11:46:26.072Z,19.61
2022-09-11T11:49:00.696Z,19.65
2022-09-11T11:51:39.375Z,19.69
2022-09-11T11:54:19.155Z,19.69
2022-09-11T11:56:52.134Z,19.68
2022-09-11T11:59:31.993Z,19.65
2022-09-11T12:02:07.145Z,19.62
2022-09-11T12:04:48.774Z,19.57
2022-09-11T12:07:23.391Z,19.54
2022-09-11T12:09:55.743Z,19.51
2022-09-11T12:12:28.902Z,19.49
2022-09-11T12:15:06.218Z,19.48
2022-09-11T12:17:38.318Z,19.48
2022-09-11T12:20:33.260Z,19.46
2022-09-11T12:23:03.665Z,19.43
2022-09-11T12:25:53.545Z,19.43
2022-09-11T12:28:26.361Z,19.45
2022-09-11T12:31:00.720Z,19.49
2022-09-11T12:33:54.403Z,19.54
2022-09-11T12:36:33.888Z,19.62
2022-09-11T12:39:14.925Z,19.68
2022-09-11T12:41:45.869Z,19.74
2022-09-11T12:44:31.501Z,19.85
2022-09-11T12:47:19.009Z,19.93
2022-09-11T12:49:58.202Z,19.98
2022-09-11T12:52:35.704Z,20.03
2022-09-11T12:55:07.599Z,20.07
2022-09-11T12:57:40.790Z,20.10
2022-09-11T13:00:26.527Z,20.09
2022-09-11T13:02:59.349Z,20.08
2022-09-11T13:05:34.721Z,20.08
2022-09-11T13:08:09.187Z,20.07
2022-09-11T13:10:40.827Z,20.07
2022-09-11T13:13:44.523Z,20.08
2022-09-11T13:16:24.444Z,20.08
2022-09-11T13:19:00.257Z,20.20
2022-09-11T13:21:36.758Z,20.21
2022-09-11T13:24:25.242Z,20.21
2022-09-11T13:26:58.126Z,20.22
2022-09-11T13:29:30.562Z,20.25
2022-09-11T13:32:08.326Z,20.27
2022-09-11T13:34:38.742Z,20.29
2022-09-11T13:37:14.144Z,20.27
2022-09-11T13:39:47.108Z,20.20
2022-09-11T13:42:23.245Z,20.20
2022-09-11T13:44:56.883Z,20.20
2022-09-11T13:47:29.176Z,20.18
2022-09-11T13:50:03.062Z,20.17
2022-09-11T13:52:37.764Z,20.19
2022-09-11T13:55:19.167Z,20.27
2022-09-11T13:57:58.438Z,20.35
2022-09-11T14:00:44.802Z,20.45
2022-09-11T14:03:22.310Z,20.53
2022-09-11T14:05:53.981Z,20.60
2022-09-11T14:08:34.681Z,20.64
2022-09-11T14:11:11.140Z,20.65
2022-09-11T14:14:06.885Z,20.66
2022-09-11T14:16:39.863Z,20.68
2022-09-11T14:19:14.890Z,20.68
2022-09-11T14:21:47.018Z,20.68
2022-09-11T14:24:28.792Z,20.67
2022-09-11T14:26:59.191Z,20.67
2022-09-11T14:29:31.417Z,20.65
2022-09-11T14:32:31.171Z,20.63
2022-09-11T14:35:01.998Z,20.59
2022-09-11T14:37:36.411Z,20.52
2022-09-11T14:40:15.052Z,20.44
2022-09-11T14:42:45.728Z,20.39
2022-09-11T14:45:22.347Z,20.35
2022-09-11T14:47:53.440Z,20.33
2022-09-11T14:50:24.570Z,20.31
2022-09-11T14:52:54.754Z,20.28
2022-09-11T14:59:14.052Z,20.05
2022-09-11T15:01:44.263Z,19.96
2022-09-11T15:04:23.414Z,19.88
2022-09-11T15:06:56.307Z,19.80
2022-09-11T15:09:26.779Z,19.71
2022-09-11T15:11:56.885Z,19.66
2022-09-11T15:14:54.466Z,19.59
2022-09-11T15:17:20.218Z,19.58
2022-09-11T15:19:51.124Z,19.56
2022-09-11T15:29:57.304Z,19.73
2022-09-11T15:32:27.580Z,19.78
2022-09-11T15:34:58.063Z,19.84
2022-09-11T15:37:28.642Z,19.88
2022-09-11T15:40:00.900Z,19.92
2022-09-11T15:42:38.840Z,19.93
2022-09-11T15:45:12.875Z,19.93
2022-09-11T15:47:44.078Z,19.93
2022-09-11T15:50:18.174Z,19.94
2022-09-11T15:52:48.981Z,19.94
2022-09-11T15:55:19.813Z,19.97
2022-09-11T15:57:50.313Z,19.98
2022-09-11T16:00:20.956Z,20.02
2022-09-11T16:02:53.756Z,20.04
2022-09-11T16:05:23.958Z,20.03
2022-09-11T16:07:54.417Z,20.00
2022-09-11T16:10:24.527Z,19.95
2022-09-11T16:12:58.837Z,19.90
2022-09-11T16:15:29.591Z,19.85
2022-09-11T16:17:59.719Z,19.79
2022-09-11T16:20:31.286Z,19.74
2022-09-11T16:23:04.710Z,19.69
2022-09-11T16:25:39.111Z,19.64
2022-09-11T16:28:09.567Z,19.59
2022-09-11T16:30:46.557Z,19.55
2022-09-11T16:33:18.647Z,19.51
2022-09-11T16:35:59.439Z,19.47
2022-09-11T16:38:30.032Z,19.42
2022-09-11T16:41:08.088Z,19.39
2022-09-11T16:43:38.421Z,19.36
2022-09-11T16:46:10.005Z,19.30
2022-09-11T16:48:40.519Z,19.26
2022-09-11T16:51:11.000Z,19.20
2022-09-11T16:53:42.024Z,19.18
2022-09-11T16:56:14.453Z,19.13
2022-09-11T16:58:46.507Z,19.10
2022-09-11T17:01:19.210Z,19.05
2022-09-11T17:03:52.588Z,19.00
2022-09-11T17:06:24.336Z,18.96
2022-09-11T17:08:54.826Z,18.92
2022-09-11T17:11:24.953Z,18.86
2022-09-11T17:13:55.654Z,18.82
2022-09-11T17:16:29.558Z,18.77
2022-09-11T17:19:01.628Z,18.72
2022-09-11T17:21:35.795Z,18.67
2022-09-11T17:24:09.463Z,18.62
2022-09-11T17:26:39.900Z,18.57
2022-09-11T17:29:10.010Z,18.51
2022-09-11T17:31:40.860Z,18.44
2022-09-11T17:34:10.993Z,18.38
2022-09-11T17:36:41.510Z,18.33
2022-09-11T17:39:11.617Z,18.26
2022-09-11T17:41:41.735Z,18.22
2022-09-11T17:44:14.074Z,18.15
2022-09-11T17:46:44.231Z,18.08
2022-09-11T17:49:14.687Z,18.01
2022-09-11T17:51:44.902Z,17.94
2022-09-11T17:54:16.109Z,17.89
2022-09-11T17:56:47.128Z,17.83
2022-09-11T17:59:17.284Z,17.77
2022-09-11T18:01:47.730Z,17.72
2022-09-11T18:04:18.298Z,17.68
2022-09-11T18:06:48.486Z,17.67
2022-09-11T18:09:19.777Z,17.65
2022-09-11T18:11:53.855Z,17.63
2022-09-11T18:14:25.367Z,17.60
2022-09-11T18:16:55.811Z,17.57
2022-09-11T18:19:28.187Z,17.52
2022-09-11T18:21:59.872Z,17.49
2022-09-11T18:24:31.301Z,17.44
2022-09-11T18:27:01.831Z,17.40
2022-09-11T18:29:32.836Z,17.35
2022-09-11T18:32:03.991Z,17.31
2022-09-11T18:34:34.705Z,17.27
2022-09-11T18:37:05.069Z,17.23
2022-09-11T18:39:35.336Z,17.18
2022-09-11T18:42:07.158Z,17.13
2022-09-11T18:44:37.750Z,17.08
2022-09-11T18:47:08.575Z,17.05
2022-09-11T18:49:39.590Z,17.02
2022-09-11T18:52:11.014Z,16.97
2022-09-11T18:54:41.145Z,16.93
2022-09-11T18:57:11.362Z,16.90
2022-09-11T18:59:42.035Z,16.85
2022-09-11T19:02:12.760Z,16.81
2022-09-11T19:04:43.192Z,16.77
2022-09-11T19:07:14.845Z,16.72
2022-09-11T19:09:46.118Z,16.66
2022-09-11T19:12:16.866Z,16.61
2022-09-11T19:14:48.829Z,16.58
2022-09-11T19:17:19.266Z,16.51
2022-09-11T19:19:49.465Z,16.46
2022-09-11T19:22:22.750Z,16.43
2022-09-11T19:24:53.240Z,16.39
2022-09-11T19:27:26.046Z,16.35
2022-09-11T19:29:56.145Z,16.33
2022-09-11T19:32:26.229Z,16.32
2022-09-11T19:34:57.626Z,16.30
2022-09-11T19:37:28.282Z,16.28
2022-09-11T19:40:00.685Z,16.26
2022-09-11T19:42:31.157Z,16.24
2022-09-11T19:45:01.257Z,16.21
2022-09-11T19:47:32.325Z,16.18
2022-09-11T19:50:02.431Z,16.17
2022-09-11T19:52:33.269Z,16.15
2022-09-11T19:55:04.036Z,16.12
2022-09-11T19:57:34.186Z,16.10
2022-09-11T20:00:05.631Z,16.08
2022-09-11T20:02:35.728Z,16.05
2022-09-11T20:05:06.725Z,16.05
2022-09-11T20:07:38.057Z,16.04
2022-09-11T20:10:10.465Z,16.02
2022-09-11T20:12:40.545Z,15.99
2022-09-11T20:15:12.941Z,15.97
2022-09-11T20:17:44.521Z,15.93
2022-09-11T20:20:14.860Z,15.90
2022-09-11T20:22:45.194Z,15.85
2022-09-11T20:25:15.833Z,15.85
2022-09-11T20:27:45.936Z,15.80
2022-09-11T20:30:16.355Z,15.74
2022-09-11T20:32:46.911Z,15.72
2022-09-11T20:35:17.762Z,15.72
2022-09-11T20:37:48.755Z,15.70
2022-09-11T20:40:19.262Z,15.66
2022-09-11T20:42:50.162Z,15.61
2022-09-11T20:45:20.354Z,15.55
2022-09-11T20:47:50.539Z,15.49
2022-09-11T20:50:20.763Z,15.45
2022-09-11T20:52:51.130Z,15.40
2022-09-11T20:55:21.588Z,15.37
2022-09-11T20:57:51.711Z,15.34
2022-09-11T21:00:22.138Z,15.30
2022-09-11T21:02:52.585Z,15.27
2022-09-11T21:05:22.695Z,15.25
2022-09-11T21:07:52.813Z,15.23
2022-09-11T21:10:23.323Z,15.23
2022-09-11T21:12:53.447Z,15.24
2022-09-11T21:15:23.607Z,15.25
2022-09-11T21:17:53.931Z,15.27
2022-09-11T21:20:24.139Z,15.27
2022-09-11T21:22:54.286Z,15.26
2022-09-11T21:25:24.695Z,15.24
2022-09-11T21:27:54.839Z,15.23
2022-09-11T21:30:24.979Z,15.20
2022-09-11T21:32:55.485Z,15.16
2022-09-11T21:35:25.610Z,15.15
2022-09-11T21:37:55.841Z,15.14
2022-09-11T21:40:26.080Z,15.12
2022-09-11T21:42:56.236Z,15.09
2022-09-11T21:45:26.365Z,15.03
2022-09-11T21:47:56.520Z,14.98
2022-09-11T21:50:27.016Z,14.93
2022-09-11T21:52:57.112Z,14.89
2022-09-11T21:55:28.068Z,14.86
2022-09-11T21:57:58.677Z,14.82
2022-09-11T22:00:28.790Z,14.77
2022-09-11T22:02:59.307Z,14.73
2022-09-11T22:05:29.956Z,14.68
2022-09-11T22:08:00.693Z,14.64
2022-09-11T22:10:31.238Z,14.60
2022-09-11T22:13:01.388Z,14.56
2022-09-11T22:15:31.525Z,14.53
2022-09-11T22:18:01.721Z,14.51
2022-09-11T22:20:31.956Z,14.50
2022-09-11T22:23:02.079Z,14.48
2022-09-11T22:25:33.317Z,14.46
2022-09-11T22:28:04.333Z,14.43
2022-09-11T22:30:35.171Z,14.40
2022-09-11T22:33:05.319Z,14.36
2022-09-11T22:35:37.348Z,14.33
2022-09-11T22:38:07.464Z,14.29
2022-09-11T22:40:37.578Z,14.22
2022-09-11T22:43:08.167Z,14.11
2022-09-11T22:45:38.747Z,14.05
2022-09-11T22:48:09.417Z,14.01
2022-09-11T22:50:39.534Z,13.99
2022-09-11T22:53:10.118Z,13.98
2022-09-11T22:55:43.197Z,13.96
2022-09-11T22:58:13.751Z,13.95
2022-09-11T23:00:45.132Z,13.93
2022-09-11T23:03:16.229Z,13.90
2022-09-11T23:06:04.547Z,13.87
2022-09-11T23:08:39.281Z,13.86
2022-09-11T23:11:11.418Z,13.83
2022-09-11T23:13:41.819Z,13.81
2022-09-11T23:16:17.150Z,13.80
2022-09-11T23:18:47.481Z,13.79
2022-09-11T23:21:18.240Z,13.78
2022-09-11T23:23:54.311Z,13.77
2022-09-11T23:26:25.826Z,13.75
2022-09-11T23:28:56.172Z,13.74
2022-09-11T23:31:28.795Z,13.74
2022-09-11T23:34:00.983Z,13.73
2022-09-11T23:36:32.417Z,13.72
2022-09-11T23:39:02.687Z,13.70
2022-09-11T23:41:33.056Z,13.67
2022-09-11T23:44:03.989Z,13.65
2022-09-11T23:46:34.387Z,13.63
2022-09-11T23:49:06.363Z,13.61
2022-09-11T23:51:36.675Z,13.60
2022-09-11T23:54:06.977Z,13.60
2022-09-11T23:56:37.381Z,13.59
2022-09-11T23:59:08.087Z,13.59
